Ana Sayfa
METAR-TAF:

METAR-TAF

Havaalanları :

Culiacán, Meksika

Enlem: 24-49N, Boylam: 107-24W, yükseklik: 39 m

Güncel hava durumu gözlemi

Rapor saat 12:47 UTC de 33 dakika önce yapıldı.
Rüzgar kuzeydoğudan 4 kt
Sıcaklık 18°C
Nem 94%
Basınç 1015 hPa
Görüş mesafesi: 16.1 km
Açık gökyüzü

METAR: MMCL 141247Z 05004KT 10SM SKC 18/17 A2998 RMK RTS

Saat: 06:20 (13:20 UTC)

Tahmin

Rapor saat 05:01 UTC de 8 saat ve 19 dakika önce yapıldı.
Ayın 14'si saat 06 UTC'den ayın 15'si saat 06 UTC'ye kadar geçerli Tahmin
Rüzgar kuzeydan kt
Görüş mesafesi: 10 km
Açık gökyüzü
Ayın 14'si saat 1800 UTC'den
Rüzgar kuzey/kuzeydoğudan 8 kt
Görüş mesafesi: 10 km
2000 ft yükseklikte parçalı bulutlu
Dönüşüyor
ayın 15'si saat 03 UTC'den ayın 15'si saat 05 UTC'ye kadar
Rüzgar kuzey/kuzeydoğudan 4 kt
Açık gökyüzü

TAF: MMCL 140501Z 1406/1506 00000KT P6SM SKC FM141800 02008KT P6SM SCT020 BECMG 1503/1505 03004KT SKC

4.000'den fazla havaalanı için hava durumu gözlemleri ve tahminleri (METAR ve TAF raporları).

Kullanılabilir istasyonlar harita üzerinde sarı ve kırmızı noktalarla gösterilir.

İstasyonun adını görmek için fareyi noktanın üzerinde gezdirin.

Sonrasında hava gözlem ve tahminlerini görmek için tıklayın.

Haritayı değiştirmek için: yaklaştırmak için siyah artı işaretli yeşil düğmeye ve uzaklaştırmak için de eksi işaretli düğmeye hızla tıklayın; bitişik haritalar için yeşil okları kullanın.


METAR-TAF: